sensor_id;sensor_type;location;lat;lon;timestamp;pressure;altitude;pressure_sealevel;temperature;humidity
19457;BME280;9867;48.094;11.478;2023-03-24T00:01:23;94604.81;;;12.70;100.00
19457;BME280;9867;48.094;11.478;2023-03-24T00:03:52;94588.13;;;12.49;100.00
19457;BME280;9867;48.094;11.478;2023-03-24T00:06:20;94589.56;;;12.45;100.00
19457;BME280;9867;48.094;11.478;2023-03-24T00:08:50;94582.50;;;12.52;100.00
19457;BME280;9867;48.094;11.478;2023-03-24T00:11:19;94565.63;;;12.45;100.00
19457;BME280;9867;48.094;11.478;2023-03-24T00:13:47;94563.03;;;12.45;100.00
19457;BME280;9867;48.094;11.478;2023-03-24T00:16:17;94566.19;;;12.47;100.00
19457;BME280;9867;48.094;11.478;2023-03-24T00:18:48;94555.88;;;12.47;100.00
19457;BME280;9867;48.094;11.478;2023-03-24T00:21:21;94556.22;;;12.50;100.00
19457;BME280;9867;48.094;11.478;2023-03-24T00:23:53;94538.97;;;12.27;100.00
19457;BME280;9867;48.094;11.478;2023-03-24T00:26:21;94539.06;;;12.33;100.00
19457;BME280;9867;48.094;11.478;2023-03-24T00:28:52;94535.94;;;12.30;100.00
19457;BME280;9867;48.094;11.478;2023-03-24T00:31:20;94526.78;;;12.35;100.00
19457;BME280;9867;48.094;11.478;2023-03-24T00:33:50;94526.00;;;12.34;100.00
19457;BME280;9867;48.094;11.478;2023-03-24T00:36:21;94525.25;;;12.45;100.00
19457;BME280;9867;48.094;11.478;2023-03-24T00:38:52;94531.03;;;12.52;100.00
19457;BME280;9867;48.094;11.478;2023-03-24T00:41:21;94528.94;;;12.49;100.00
19457;BME280;9867;48.094;11.478;2023-03-24T00:43:54;94532.06;;;12.51;100.00
19457;BME280;9867;48.094;11.478;2023-03-24T00:46:23;94521.66;;;12.46;100.00
19457;BME280;9867;48.094;11.478;2023-03-24T00:48:56;94518.44;;;12.51;100.00
19457;BME280;9867;48.094;11.478;2023-03-24T00:51:30;94522.00;;;12.50;100.00
19457;BME280;9867;48.094;11.478;2023-03-24T00:54:01;94515.06;;;12.50;100.00
19457;BME280;9867;48.094;11.478;2023-03-24T00:56:32;94519.88;;;12.47;100.00
19457;BME280;9867;48.094;11.478;2023-03-24T00:59:02;94519.88;;;12.58;100.00
19457;BME280;9867;48.094;11.478;2023-03-24T01:01:32;94519.22;;;12.75;100.00
19457;BME280;9867;48.094;11.478;2023-03-24T01:04:03;94515.97;;;12.68;100.00
19457;BME280;9867;48.094;11.478;2023-03-24T01:06:33;94527.91;;;12.85;100.00
19457;BME280;9867;48.094;11.478;2023-03-24T01:09:04;94523.44;;;12.57;100.00
19457;BME280;9867;48.094;11.478;2023-03-24T01:11:37;94529.72;;;12.50;100.00
19457;BME280;9867;48.094;11.478;2023-03-24T01:14:06;94529.25;;;12.41;100.00
19457;BME280;9867;48.094;11.478;2023-03-24T01:16:34;94532.59;;;12.53;100.00
19457;BME280;9867;48.094;11.478;2023-03-24T01:19:02;94533.28;;;12.60;100.00
19457;BME280;9867;48.094;11.478;2023-03-24T01:21:31;94524.34;;;12.63;100.00
19457;BME280;9867;48.094;11.478;2023-03-24T01:24:01;94533.84;;;12.62;100.00
19457;BME280;9867;48.094;11.478;2023-03-24T01:26:30;94530.16;;;12.58;100.00
19457;BME280;9867;48.094;11.478;2023-03-24T01:28:59;94526.00;;;12.57;100.00
19457;BME280;9867;48.094;11.478;2023-03-24T01:31:27;94525.56;;;12.60;100.00
19457;BME280;9867;48.094;11.478;2023-03-24T01:33:55;94512.72;;;12.60;100.00
19457;BME280;9867;48.094;11.478;2023-03-24T01:36:23;94511.34;;;12.58;100.00
19457;BME280;9867;48.094;11.478;2023-03-24T01:38:51;94507.22;;;12.57;100.00
19457;BME280;9867;48.094;11.478;2023-03-24T01:41:19;94500.84;;;12.48;100.00
19457;BME280;9867;48.094;11.478;2023-03-24T01:43:49;94494.03;;;12.42;100.00
19457;BME280;9867;48.094;11.478;2023-03-24T01:46:21;94493.91;;;12.37;100.00
19457;BME280;9867;48.094;11.478;2023-03-24T01:48:52;94492.25;;;12.42;100.00
19457;BME280;9867;48.094;11.478;2023-03-24T01:51:23;94489.00;;;12.47;100.00
19457;BME280;9867;48.094;11.478;2023-03-24T01:53:54;94499.72;;;12.55;100.00
19457;BME280;9867;48.094;11.478;2023-03-24T01:56:24;94498.84;;;12.61;100.00
19457;BME280;9867;48.094;11.478;2023-03-24T01:58:57;94495.47;;;12.73;100.00
19457;BME280;9867;48.094;11.478;2023-03-24T02:01:35;94500.41;;;12.74;100.00
19457;BME280;9867;48.094;11.478;2023-03-24T02:04:24;94494.47;;;12.74;100.00
19457;BME280;9867;48.094;11.478;2023-03-24T02:07:04;94513.38;;;12.68;100.00
19457;BME280;9867;48.094;11.478;2023-03-24T02:09:35;94501.31;;;12.68;100.00
19457;BME280;9867;48.094;11.478;2023-03-24T02:12:06;94497.94;;;12.68;100.00
19457;BME280;9867;48.094;11.478;2023-03-24T02:14:39;94493.13;;;12.83;100.00
19457;BME280;9867;48.094;11.478;2023-03-24T02:17:45;94494.56;;;12.79;100.00
19457;BME280;9867;48.094;11.478;2023-03-24T02:20:32;94492.91;;;12.73;100.00
19457;BME280;9867;48.094;11.478;2023-03-24T02:23:28;94494.00;;;12.77;100.00
19457;BME280;9867;48.094;11.478;2023-03-24T02:36:16;94500.84;;;12.59;100.00
19457;BME280;9867;48.094;11.478;2023-03-24T02:39:13;94508.13;;;12.62;100.00
19457;BME280;9867;48.094;11.478;2023-03-24T02:41:49;94507.00;;;12.58;100.00
19457;BME280;9867;48.094;11.478;2023-03-24T02:44:24;94495.72;;;12.48;100.00
19457;BME280;9867;48.094;11.478;2023-03-24T02:47:00;94500.63;;;12.49;100.00
19457;BME280;9867;48.094;11.478;2023-03-24T02:49:33;94489.78;;;12.36;100.00
19457;BME280;9867;48.094;11.478;2023-03-24T02:52:07;94496.69;;;12.23;100.00
19457;BME280;9867;48.094;11.478;2023-03-24T02:54:46;94496.81;;;12.40;100.00
19457;BME280;9867;48.094;11.478;2023-03-24T02:57:19;94478.47;;;12.37;100.00
19457;BME280;9867;48.094;11.478;2023-03-24T03:00:10;94487.75;;;12.26;100.00
19457;BME280;9867;48.094;11.478;2023-03-24T03:03:07;94480.81;;;12.15;100.00
19457;BME280;9867;48.094;11.478;2023-03-24T03:05:44;94472.19;;;12.09;100.00
19457;BME280;9867;48.094;11.478;2023-03-24T03:08:15;94477.88;;;12.11;100.00
19457;BME280;9867;48.094;11.478;2023-03-24T03:10:49;94476.66;;;12.14;100.00
19457;BME280;9867;48.094;11.478;2023-03-24T03:13:23;94474.56;;;12.22;100.00
19457;BME280;9867;48.094;11.478;2023-03-24T03:15:55;94477.56;;;12.31;100.00
19457;BME280;9867;48.094;11.478;2023-03-24T03:18:28;94472.31;;;12.38;100.00
19457;BME280;9867;48.094;11.478;2023-03-24T03:21:01;94459.78;;;12.29;100.00
19457;BME280;9867;48.094;11.478;2023-03-24T03:23:35;94465.19;;;12.28;100.00
19457;BME280;9867;48.094;11.478;2023-03-24T03:26:08;94452.31;;;12.28;100.00
19457;BME280;9867;48.094;11.478;2023-03-24T03:28:42;94450.84;;;12.32;100.00
19457;BME280;9867;48.094;11.478;2023-03-24T03:31:19;94452.75;;;12.25;100.00
19457;BME280;9867;48.094;11.478;2023-03-24T03:33:55;94447.72;;;12.30;100.00
19457;BME280;9867;48.094;11.478;2023-03-24T03:36:28;94440.91;;;12.12;100.00
19457;BME280;9867;48.094;11.478;2023-03-24T03:39:04;94437.06;;;11.91;100.00
19457;BME280;9867;48.094;11.478;2023-03-24T03:41:37;94434.59;;;11.85;100.00
19457;BME280;9867;48.094;11.478;2023-03-24T03:44:06;94421.31;;;11.76;100.00
19457;BME280;9867;48.094;11.478;2023-03-24T03:46:38;94414.56;;;11.75;100.00
19457;BME280;9867;48.094;11.478;2023-03-24T03:49:09;94402.97;;;11.84;100.00
19457;BME280;9867;48.094;11.478;2023-03-24T03:51:37;94397.53;;;12.04;100.00
19457;BME280;9867;48.094;11.478;2023-03-24T03:54:07;94398.19;;;12.00;100.00
19457;BME280;9867;48.094;11.478;2023-03-24T03:56:38;94384.44;;;11.94;100.00
19457;BME280;9867;48.094;11.478;2023-03-24T03:59:33;94385.69;;;11.80;100.00
19457;BME280;9867;48.094;11.478;2023-03-24T04:02:40;94376.28;;;11.85;100.00
19457;BME280;9867;48.094;11.478;2023-03-24T04:05:21;94375.16;;;11.93;100.00
19457;BME280;9867;48.094;11.478;2023-03-24T04:08:22;94378.28;;;12.07;100.00
19457;BME280;9867;48.094;11.478;2023-03-24T04:14:18;94376.19;;;12.04;100.00
19457;BME280;9867;48.094;11.478;2023-03-24T04:17:24;94374.16;;;12.17;100.00
19457;BME280;9867;48.094;11.478;2023-03-24T04:20:04;94381.22;;;11.99;100.00
19457;BME280;9867;48.094;11.478;2023-03-24T04:22:47;94381.53;;;11.79;100.00
19457;BME280;9867;48.094;11.478;2023-03-24T04:25:28;94381.66;;;11.95;100.00
19457;BME280;9867;48.094;11.478;2023-03-24T04:28:09;94377.19;;;11.91;100.00
19457;BME280;9867;48.094;11.478;2023-03-24T04:30:45;94388.09;;;11.75;100.00
19457;BME280;9867;48.094;11.478;2023-03-24T04:33:23;94385.19;;;11.71;100.00
19457;BME280;9867;48.094;11.478;2023-03-24T04:35:59;94382.00;;;11.57;100.00
19457;BME280;9867;48.094;11.478;2023-03-24T04:38:48;94381.47;;;11.67;100.00
19457;BME280;9867;48.094;11.478;2023-03-24T04:41:30;94390.13;;;11.84;100.00
19457;BME280;9867;48.094;11.478;2023-03-24T04:44:10;94382.84;;;11.81;100.00
19457;BME280;9867;48.094;11.478;2023-03-24T04:46:59;94391.69;;;11.85;100.00
19457;BME280;9867;48.094;11.478;2023-03-24T04:49:28;94382.19;;;11.86;100.00
19457;BME280;9867;48.094;11.478;2023-03-24T04:51:56;94390.94;;;11.97;100.00
19457;BME280;9867;48.094;11.478;2023-03-24T04:54:26;94386.22;;;12.05;100.00
19457;BME280;9867;48.094;11.478;2023-03-24T04:57:02;94379.06;;;12.07;100.00
19457;BME280;9867;48.094;11.478;2023-03-24T04:59:43;94365.91;;;12.04;100.00
19457;BME280;9867;48.094;11.478;2023-03-24T05:02:14;94380.31;;;12.16;100.00
19457;BME280;9867;48.094;11.478;2023-03-24T05:04:56;94382.19;;;12.33;100.00
19457;BME280;9867;48.094;11.478;2023-03-24T05:07:41;94392.28;;;12.22;100.00
19457;BME280;9867;48.094;11.478;2023-03-24T05:10:13;94394.84;;;12.22;100.00
19457;BME280;9867;48.094;11.478;2023-03-24T05:12:47;94422.34;;;12.22;100.00
19457;BME280;9867;48.094;11.478;2023-03-24T05:15:35;94425.25;;;12.14;100.00
19457;BME280;9867;48.094;11.478;2023-03-24T05:18:19;94424.78;;;12.05;100.00
19457;BME280;9867;48.094;11.478;2023-03-24T05:20:47;94428.59;;;11.91;100.00
19457;BME280;9867;48.094;11.478;2023-03-24T05:23:18;94440.13;;;11.70;100.00
19457;BME280;9867;48.094;11.478;2023-03-24T05:25:48;94442.28;;;11.73;100.00
19457;BME280;9867;48.094;11.478;2023-03-24T05:28:21;94436.06;;;11.51;100.00
19457;BME280;9867;48.094;11.478;2023-03-24T05:30:51;94436.34;;;11.73;100.00
19457;BME280;9867;48.094;11.478;2023-03-24T05:33:34;94438.00;;;11.67;100.00
19457;BME280;9867;48.094;11.478;2023-03-24T05:36:05;94435.28;;;11.92;100.00
19457;BME280;9867;48.094;11.478;2023-03-24T05:38:34;94428.59;;;11.91;100.00
19457;BME280;9867;48.094;11.478;2023-03-24T05:41:02;94437.19;;;12.08;100.00
19457;BME280;9867;48.094;11.478;2023-03-24T05:43:35;94422.69;;;12.02;100.00
19457;BME280;9867;48.094;11.478;2023-03-24T05:46:08;94416.41;;;12.10;100.00
19457;BME280;9867;48.094;11.478;2023-03-24T05:48:38;94406.91;;;12.10;100.00
19457;BME280;9867;48.094;11.478;2023-03-24T05:51:11;94439.31;;;12.11;100.00
19457;BME280;9867;48.094;11.478;2023-03-24T05:53:39;94425.91;;;12.09;100.00
19457;BME280;9867;48.094;11.478;2023-03-24T05:56:19;94435.09;;;12.17;100.00
19457;BME280;9867;48.094;11.478;2023-03-24T05:58:56;94423.34;;;12.21;100.00
19457;BME280;9867;48.094;11.478;2023-03-24T06:01:38;94404.78;;;12.30;100.00
19457;BME280;9867;48.094;11.478;2023-03-24T06:04:18;94424.91;;;12.45;100.00
19457;BME280;9867;48.094;11.478;2023-03-24T06:06:52;94421.44;;;12.40;100.00
19457;BME280;9867;48.094;11.478;2023-03-24T06:09:25;94403.66;;;12.38;100.00
19457;BME280;9867;48.094;11.478;2023-03-24T06:11:55;94414.06;;;12.43;100.00
19457;BME280;9867;48.094;11.478;2023-03-24T06:14:23;94395.59;;;12.35;100.00
19457;BME280;9867;48.094;11.478;2023-03-24T06:17:02;94378.94;;;12.37;100.00
19457;BME280;9867;48.094;11.478;2023-03-24T06:19:34;94382.75;;;12.35;100.00
19457;BME280;9867;48.094;11.478;2023-03-24T06:22:16;94388.69;;;12.23;100.00
19457;BME280;9867;48.094;11.478;2023-03-24T06:24:45;94376.25;;;12.32;100.00
19457;BME280;9867;48.094;11.478;2023-03-24T06:27:15;94383.19;;;12.32;100.00
19457;BME280;9867;48.094;11.478;2023-03-24T06:29:47;94382.16;;;12.56;100.00
19457;BME280;9867;48.094;11.478;2023-03-24T06:32:17;94381.59;;;12.54;100.00
19457;BME280;9867;48.094;11.478;2023-03-24T06:34:47;94383.38;;;12.53;100.00
19457;BME280;9867;48.094;11.478;2023-03-24T06:37:24;94373.75;;;12.60;100.00
19457;BME280;9867;48.094;11.478;2023-03-24T06:39:53;94372.31;;;12.64;100.00
19457;BME280;9867;48.094;11.478;2023-03-24T06:42:24;94382.25;;;12.61;100.00
19457;BME280;9867;48.094;11.478;2023-03-24T06:44:53;94373.09;;;12.65;100.00
19457;BME280;9867;48.094;11.478;2023-03-24T06:47:21;94363.91;;;12.69;100.00
19457;BME280;9867;48.094;11.478;2023-03-24T06:49:50;94367.03;;;12.71;100.00
19457;BME280;9867;48.094;11.478;2023-03-24T06:52:19;94372.19;;;12.71;100.00
19457;BME280;9867;48.094;11.478;2023-03-24T06:54:47;94368.44;;;12.79;100.00
19457;BME280;9867;48.094;11.478;2023-03-24T06:57:15;94368.88;;;12.87;100.00
19457;BME280;9867;48.094;11.478;2023-03-24T07:00:02;94373.13;;;12.93;100.00
19457;BME280;9867;48.094;11.478;2023-03-24T07:03:14;94384.19;;;12.94;100.00
19457;BME280;9867;48.094;11.478;2023-03-24T07:05:58;94381.94;;;12.97;100.00
19457;BME280;9867;48.094;11.478;2023-03-24T07:08:26;94389.81;;;12.91;100.00
19457;BME280;9867;48.094;11.478;2023-03-24T07:11:04;94396.84;;;12.95;100.00
19457;BME280;9867;48.094;11.478;2023-03-24T07:13:36;94397.56;;;13.08;100.00
19457;BME280;9867;48.094;11.478;2023-03-24T07:16:04;94403.19;;;13.16;100.00
19457;BME280;9867;48.094;11.478;2023-03-24T07:18:35;94390.47;;;12.98;100.00
19457;BME280;9867;48.094;11.478;2023-03-24T07:21:06;94415.44;;;13.26;100.00
19457;BME280;9867;48.094;11.478;2023-03-24T07:23:35;94423.66;;;12.99;100.00
19457;BME280;9867;48.094;11.478;2023-03-24T07:26:13;94435.59;;;12.77;100.00
19457;BME280;9867;48.094;11.478;2023-03-24T07:28:47;94446.03;;;12.59;100.00
19457;BME280;9867;48.094;11.478;2023-03-24T07:31:36;94471.00;;;12.23;100.00
19457;BME280;9867;48.094;11.478;2023-03-24T07:34:07;94458.91;;;12.24;100.00
19457;BME280;9867;48.094;11.478;2023-03-24T07:36:39;94466.19;;;12.39;100.00
19457;BME280;9867;48.094;11.478;2023-03-24T07:39:12;94473.13;;;12.50;100.00
19457;BME280;9867;48.094;11.478;2023-03-24T07:41:40;94481.16;;;12.42;100.00
19457;BME280;9867;48.094;11.478;2023-03-24T07:44:22;94481.94;;;12.42;100.00
19457;BME280;9867;48.094;11.478;2023-03-24T07:46:51;94482.63;;;12.61;100.00
19457;BME280;9867;48.094;11.478;2023-03-24T07:49:20;94504.09;;;12.67;100.00
19457;BME280;9867;48.094;11.478;2023-03-24T07:51:58;94490.78;;;12.70;100.00
19457;BME280;9867;48.094;11.478;2023-03-24T07:54:32;94493.66;;;12.96;100.00
19457;BME280;9867;48.094;11.478;2023-03-24T07:57:01;94496.19;;;13.08;100.00
19457;BME280;9867;48.094;11.478;2023-03-24T07:59:29;94490.03;;;13.09;100.00
19457;BME280;9867;48.094;11.478;2023-03-24T08:02:11;94492.94;;;13.24;100.00
19457;BME280;9867;48.094;11.478;2023-03-24T08:05:19;94484.84;;;13.44;100.00
19457;BME280;9867;48.094;11.478;2023-03-24T08:07:55;94498.41;;;13.68;100.00
19457;BME280;9867;48.094;11.478;2023-03-24T08:10:25;94496.09;;;13.83;100.00
19457;BME280;9867;48.094;11.478;2023-03-24T08:12:54;94487.44;;;14.06;100.00
19457;BME280;9867;48.094;11.478;2023-03-24T08:15:24;94501.91;;;14.07;100.00
19457;BME280;9867;48.094;11.478;2023-03-24T08:17:52;94493.69;;;14.27;100.00
19457;BME280;9867;48.094;11.478;2023-03-24T08:20:22;94490.41;;;14.31;100.00
19457;BME280;9867;48.094;11.478;2023-03-24T08:22:54;94475.41;;;14.28;100.00
19457;BME280;9867;48.094;11.478;2023-03-24T08:25:24;94496.53;;;14.42;100.00
19457;BME280;9867;48.094;11.478;2023-03-24T08:27:53;94498.69;;;14.84;100.00
19457;BME280;9867;48.094;11.478;2023-03-24T08:30:23;94503.22;;;14.77;100.00
19457;BME280;9867;48.094;11.478;2023-03-24T08:32:53;94497.59;;;14.80;100.00
19457;BME280;9867;48.094;11.478;2023-03-24T08:35:23;94509.88;;;15.11;100.00
19457;BME280;9867;48.094;11.478;2023-03-24T08:37:51;94508.34;;;15.10;100.00
19457;BME280;9867;48.094;11.478;2023-03-24T08:40:22;94509.88;;;15.55;100.00
19457;BME280;9867;48.094;11.478;2023-03-24T08:42:52;94516.06;;;15.76;100.00
19457;BME280;9867;48.094;11.478;2023-03-24T08:45:22;94518.47;;;15.60;100.00
19457;BME280;9867;48.094;11.478;2023-03-24T08:47:54;94531.59;;;15.32;100.00
19457;BME280;9867;48.094;11.478;2023-03-24T08:50:26;94530.19;;;15.02;100.00
19457;BME280;9867;48.094;11.478;2023-03-24T08:52:55;94534.78;;;14.62;100.00
19457;BME280;9867;48.094;11.478;2023-03-24T08:55:27;94527.66;;;14.52;100.00
19457;BME280;9867;48.094;11.478;2023-03-24T08:57:57;94529.81;;;14.27;100.00
19457;BME280;9867;48.094;11.478;2023-03-24T09:00:25;94525.59;;;14.21;100.00
19457;BME280;9867;48.094;11.478;2023-03-24T09:02:54;94535.75;;;14.27;100.00
19457;BME280;9867;48.094;11.478;2023-03-24T09:05:24;94526.47;;;14.26;100.00
19457;BME280;9867;48.094;11.478;2023-03-24T09:08:10;94514.03;;;14.23;100.00
19457;BME280;9867;48.094;11.478;2023-03-24T09:10:40;94524.69;;;14.44;100.00
19457;BME280;9867;48.094;11.478;2023-03-24T09:13:12;94518.97;;;14.42;100.00
19457;BME280;9867;48.094;11.478;2023-03-24T09:15:45;94527.75;;;14.41;100.00
19457;BME280;9867;48.094;11.478;2023-03-24T09:18:13;94528.50;;;14.41;100.00
19457;BME280;9867;48.094;11.478;2023-03-24T09:20:43;94534.75;;;14.28;100.00
19457;BME280;9867;48.094;11.478;2023-03-24T09:23:11;94536.91;;;14.20;100.00
19457;BME280;9867;48.094;11.478;2023-03-24T09:25:40;94549.59;;;14.21;100.00
19457;BME280;9867;48.094;11.478;2023-03-24T09:28:08;94560.88;;;14.32;100.00
19457;BME280;9867;48.094;11.478;2023-03-24T09:30:36;94555.75;;;14.20;100.00
19457;BME280;9867;48.094;11.478;2023-03-24T09:33:04;94562.44;;;14.33;100.00
19457;BME280;9867;48.094;11.478;2023-03-24T09:35:33;94568.41;;;14.05;100.00
19457;BME280;9867;48.094;11.478;2023-03-24T09:38:01;94573.16;;;13.68;100.00
19457;BME280;9867;48.094;11.478;2023-03-24T09:40:31;94585.50;;;13.54;100.00
19457;BME280;9867;48.094;11.478;2023-03-24T09:43:03;94576.47;;;13.40;100.00
19457;BME280;9867;48.094;11.478;2023-03-24T09:45:35;94575.81;;;13.33;100.00
19457;BME280;9867;48.094;11.478;2023-03-24T09:48:06;94572.72;;;13.19;100.00
19457;BME280;9867;48.094;11.478;2023-03-24T09:50:40;94576.16;;;13.13;100.00
19457;BME280;9867;48.094;11.478;2023-03-24T09:53:21;94576.47;;;13.05;100.00
19457;BME280;9867;48.094;11.478;2023-03-24T09:55:52;94575.06;;;12.97;100.00
19457;BME280;9867;48.094;11.478;2023-03-24T09:58:28;94585.34;;;12.97;100.00
19457;BME280;9867;48.094;11.478;2023-03-24T10:00:59;94573.78;;;13.00;100.00
19457;BME280;9867;48.094;11.478;2023-03-24T10:03:27;94579.06;;;12.93;100.00
19457;BME280;9867;48.094;11.478;2023-03-24T10:06:03;94576.81;;;13.09;100.00
19457;BME280;9867;48.094;11.478;2023-03-24T10:08:35;94581.19;;;13.43;100.00
19457;BME280;9867;48.094;11.478;2023-03-24T10:11:05;94575.69;;;13.28;100.00
19457;BME280;9867;48.094;11.478;2023-03-24T10:13:43;94580.88;;;12.93;100.00
19457;BME280;9867;48.094;11.478;2023-03-24T10:16:18;94589.25;;;13.00;100.00
19457;BME280;9867;48.094;11.478;2023-03-24T10:18:54;94583.66;;;12.91;100.00
19457;BME280;9867;48.094;11.478;2023-03-24T10:21:26;94595.88;;;12.96;100.00
19457;BME280;9867;48.094;11.478;2023-03-24T10:24:00;94596.09;;;12.94;100.00
19457;BME280;9867;48.094;11.478;2023-03-24T10:26:36;94600.00;;;12.97;100.00
19457;BME280;9867;48.094;11.478;2023-03-24T10:29:26;94611.19;;;12.91;100.00
19457;BME280;9867;48.094;11.478;2023-03-24T10:31:58;94616.03;;;12.99;100.00
19457;BME280;9867;48.094;11.478;2023-03-24T10:34:28;94619.59;;;12.98;100.00
19457;BME280;9867;48.094;11.478;2023-03-24T10:36:59;94599.91;;;12.92;100.00
19457;BME280;9867;48.094;11.478;2023-03-24T10:39:28;94605.59;;;13.06;100.00
19457;BME280;9867;48.094;11.478;2023-03-24T10:42:14;94614.38;;;13.16;100.00
19457;BME280;9867;48.094;11.478;2023-03-24T10:44:50;94623.41;;;13.30;100.00
19457;BME280;9867;48.094;11.478;2023-03-24T10:47:21;94622.28;;;13.38;100.00
19457;BME280;9867;48.094;11.478;2023-03-24T10:49:53;94624.88;;;13.38;100.00
19457;BME280;9867;48.094;11.478;2023-03-24T10:52:24;94641.09;;;13.27;100.00
19457;BME280;9867;48.094;11.478;2023-03-24T10:54:53;94627.31;;;13.10;100.00
19457;BME280;9867;48.094;11.478;2023-03-24T10:57:23;94630.22;;;13.02;100.00
19457;BME280;9867;48.094;11.478;2023-03-24T10:59:59;94649.25;;;13.01;100.00
19457;BME280;9867;48.094;11.478;2023-03-24T11:02:35;94632.00;;;12.78;100.00
19457;BME280;9867;48.094;11.478;2023-03-24T11:05:14;94636.34;;;12.66;100.00
19457;BME280;9867;48.094;11.478;2023-03-24T11:07:44;94625.38;;;12.58;100.00
19457;BME280;9867;48.094;11.478;2023-03-24T11:10:15;94653.38;;;12.37;100.00
19457;BME280;9867;48.094;11.478;2023-03-24T11:12:58;94640.38;;;12.20;100.00
19457;BME280;9867;48.094;11.478;2023-03-24T11:15:30;94599.88;;;12.15;100.00
19457;BME280;9867;48.094;11.478;2023-03-24T11:18:00;94628.03;;;12.10;100.00
19457;BME280;9867;48.094;11.478;2023-03-24T11:20:36;94602.28;;;11.99;100.00
19457;BME280;9867;48.094;11.478;2023-03-24T11:23:07;94612.13;;;11.83;100.00
19457;BME280;9867;48.094;11.478;2023-03-24T11:25:39;94638.25;;;11.62;100.00
19457;BME280;9867;48.094;11.478;2023-03-24T11:28:13;94599.03;;;11.55;100.00
19457;BME280;9867;48.094;11.478;2023-03-24T11:30:48;94549.69;;;11.65;100.00
19457;BME280;9867;48.094;11.478;2023-03-24T11:33:22;94542.97;;;11.82;100.00
19457;BME280;9867;48.094;11.478;2023-03-24T11:36:05;94527.06;;;12.03;100.00
19457;BME280;9867;48.094;11.478;2023-03-24T11:38:37;94522.19;;;12.25;100.00
19457;BME280;9867;48.094;11.478;2023-03-24T11:41:04;94531.72;;;12.48;100.00
19457;BME280;9867;48.094;11.478;2023-03-24T11:43:33;94533.31;;;12.72;100.00
19457;BME280;9867;48.094;11.478;2023-03-24T11:46:06;94528.22;;;13.01;100.00
19457;BME280;9867;48.094;11.478;2023-03-24T11:48:39;94539.00;;;13.21;100.00
19457;BME280;9867;48.094;11.478;2023-03-24T11:51:14;94529.66;;;13.43;100.00
19457;BME280;9867;48.094;11.478;2023-03-24T11:53:47;94523.63;;;13.66;100.00
19457;BME280;9867;48.094;11.478;2023-03-24T11:56:22;94526.91;;;13.90;100.00
19457;BME280;9867;48.094;11.478;2023-03-24T11:58:57;94529.00;;;13.93;100.00
19457;BME280;9867;48.094;11.478;2023-03-24T12:01:31;94529.91;;;14.15;100.00
19457;BME280;9867;48.094;11.478;2023-03-24T12:04:17;94523.13;;;14.43;100.00
19457;BME280;9867;48.094;11.478;2023-03-24T12:06:57;94533.91;;;14.73;100.00
19457;BME280;9867;48.094;11.478;2023-03-24T12:09:33;94539.91;;;14.95;100.00
19457;BME280;9867;48.094;11.478;2023-03-24T12:12:16;94540.94;;;15.16;100.00
19457;BME280;9867;48.094;11.478;2023-03-24T12:14:58;94533.25;;;15.21;100.00
19457;BME280;9867;48.094;11.478;2023-03-24T12:17:40;94521.47;;;15.09;100.00
19457;BME280;9867;48.094;11.478;2023-03-24T12:20:16;94525.00;;;15.02;100.00
19457;BME280;9867;48.094;11.478;2023-03-24T12:22:56;94521.47;;;14.87;100.00
19457;BME280;9867;48.094;11.478;2023-03-24T12:25:38;94512.84;;;14.81;100.00
19457;BME280;9867;48.094;11.478;2023-03-24T12:28:19;94525.19;;;14.96;100.00
19457;BME280;9867;48.094;11.478;2023-03-24T12:31:01;94525.28;;;14.84;100.00
19457;BME280;9867;48.094;11.478;2023-03-24T12:33:43;94518.75;;;14.98;100.00
19457;BME280;9867;48.094;11.478;2023-03-24T12:36:34;94529.00;;;14.93;100.00
19457;BME280;9867;48.094;11.478;2023-03-24T12:39:08;94527.25;;;14.77;100.00
19457;BME280;9867;48.094;11.478;2023-03-24T12:42:03;94532.19;;;14.79;100.00
19457;BME280;9867;48.094;11.478;2023-03-24T12:50:44;94541.81;;;14.83;100.00
19457;BME280;9867;48.094;11.478;2023-03-24T12:53:29;94546.63;;;14.96;100.00
19457;BME280;9867;48.094;11.478;2023-03-24T12:56:04;94545.31;;;15.16;100.00
19457;BME280;9867;48.094;11.478;2023-03-24T12:58:40;94538.13;;;15.18;100.00
19457;BME280;9867;48.094;11.478;2023-03-24T13:01:15;94548.50;;;15.01;100.00
19457;BME280;9867;48.094;11.478;2023-03-24T13:03:47;94553.91;;;14.99;100.00
19457;BME280;9867;48.094;11.478;2023-03-24T13:06:21;94561.25;;;14.91;100.00
19457;BME280;9867;48.094;11.478;2023-03-24T13:09:00;94564.81;;;14.51;100.00
19457;BME280;9867;48.094;11.478;2023-03-24T13:11:40;94563.91;;;14.12;100.00
19457;BME280;9867;48.094;11.478;2023-03-24T13:14:15;94559.31;;;13.86;100.00
19457;BME280;9867;48.094;11.478;2023-03-24T13:16:46;94559.25;;;13.69;100.00
19457;BME280;9867;48.094;11.478;2023-03-24T13:19:18;94542.53;;;13.72;100.00
19457;BME280;9867;48.094;11.478;2023-03-24T13:21:50;94530.25;;;13.90;100.00
19457;BME280;9867;48.094;11.478;2023-03-24T13:24:21;94522.22;;;14.04;100.00
19457;BME280;9867;48.094;11.478;2023-03-24T13:26:55;94524.34;;;14.07;100.00
19457;BME280;9867;48.094;11.478;2023-03-24T13:29:33;94519.47;;;13.93;100.00
19457;BME280;9867;48.094;11.478;2023-03-24T13:32:23;94523.75;;;13.88;100.00
19457;BME280;9867;48.094;11.478;2023-03-24T13:34:55;94511.59;;;13.72;100.00
19457;BME280;9867;48.094;11.478;2023-03-24T13:37:31;94508.84;;;13.61;100.00
19457;BME280;9867;48.094;11.478;2023-03-24T13:40:06;94520.34;;;13.42;100.00
19457;BME280;9867;48.094;11.478;2023-03-24T13:42:42;94520.03;;;13.27;100.00
19457;BME280;9867;48.094;11.478;2023-03-24T13:45:22;94497.31;;;13.24;100.00
19457;BME280;9867;48.094;11.478;2023-03-24T13:48:02;94508.31;;;13.19;100.00